Flight Track Log - Related Links

Times and Time Zones

All times are in EDT time to prevent confusion due to time zone crossing. See the TCF3444 flight status page for this flight to view local times or setup timezone preferences in your user account.

Time Position Orientation Groundspeed Altitude Reporting Facility
EDT Latitude Longitude Course Direction KTS MPH feet Rate Location/Type
Sat 01:25:20 PM 39.8833 -104.6167 180° South 155 178 6,200  Level Denver TRACON
Sat 01:26:20 PM 39.8667 -104.5500 108° East 211 243 7,100 1,456 Climbing Denver TRACON
Sat 01:27:03 PM 39.8272 -104.5281 157° South 224 258 8,700 1,943 Climbing Denver Center
Sat 01:28:00 PM 39.5655 -104.4443 212° Southwest  Level FlightAware Approximate
Sat 01:28:05 PM 39.7544 -104.5208 176° South 263 303 10,500  Level Denver Center
Sat 01:29:00 PM 39.4563 -104.5000 180° South  Level FlightAware Approximate
Sat 01:29:07 PM 39.6669 -104.5119 176° South 317 365 12,800  Level Denver Center
Sat 01:30:00 PM 39.3362 -104.5000 180° South  Level FlightAware Approximate
Sat 01:30:09 PM 39.5678 -104.5022 176° South 337 388 15,500  Level Denver Center
Sat 01:31:11 PM 39.4703 -104.4917 175° South 363 418 17,800 2,323 Climbing Denver Center
Sat 01:32:13 PM 39.3619 -104.4808 176° South 365 420 20,300 2,226 Climbing Denver Center
Sat 01:33:15 PM 39.2586 -104.4703 175° South 372 428 22,400 1,951 Climbing Denver Center
Sat 01:34:16 PM 39.1436 -104.4592 176° South 382 440 24,300 1,707 Climbing Denver Center
Sat 01:35:18 PM 39.0392 -104.4331 169° South 394 453 25,900 1,500 Climbing Denver Center
Sat 01:36:20 PM 38.9208 -104.3992 167° South 411 473 27,400 1,403 Climbing Denver Center
Sat 01:37:22 PM 38.8047 -104.3672 168° South 422 486 28,800 1,258 Climbing Denver Center
Sat 01:38:24 PM 38.6858 -104.3319 167° South 433 498 30,000 1,065 Climbing Denver Center
Sat 01:39:26 PM 38.5814 -104.2375 145° Southeast 461 531 31,000 1,024 Climbing Denver Center
Sat 01:40:27 PM 38.4769 -104.1275 140° Southeast 472 543 32,100 976 Climbing Denver Center
Sat 01:41:29 PM 38.3642 -104.0086 140° Southeast 470 541 33,000 532 Climbing Denver Center
Sat 01:42:31 PM 38.2681 -103.9036 139° Southeast 473 544 33,200 726 Climbing Denver Center
Sat 01:43:33 PM 38.1728 -103.8028 140° Southeast 465 535 34,500 871 Climbing Denver Center
Sat 01:44:35 PM 38.0625 -103.6869 140° Southeast 458 527 35,000 242 Climbing Denver Center
Sat 01:45:37 PM 37.9656 -103.5825 140° Southeast 472 543 35,000  Level Denver Center
Sat 01:46:38 PM 37.8519 -103.4617 140° Southeast 474 545 35,000  Level Denver Center
Sat 01:47:40 PM 37.7531 -103.3589 141° Southeast 476 548 35,000  Level Denver Center
Sat 01:48:42 PM 37.6553 -103.2561 140° Southeast 475 547 35,000  Level Denver Center
Sat 01:49:44 PM 37.5403 -103.1364 140° Southeast 476 548 35,000  Level Denver Center
Sat 01:50:46 PM 37.4422 -103.0333 140° Southeast 477 549 35,000  Level Denver Center
Sat 01:51:48 PM 37.3264 -102.9144 141° Southeast 479 551 35,000  Level Denver Center
Sat 01:52:24 PM 37.2775 -102.8647 141° Southeast 478 550 35,000  Level Albuquerque Center
Sat 01:53:25 PM 37.1622 -102.7464 141° Southeast 478 550 35,000  Level Albuquerque Center
Sat 01:54:27 PM 37.0647 -102.6425 140° Southeast 479 551 35,000  Level Albuquerque Center
Sat 01:55:29 PM 36.9489 -102.5253 141° Southeast 479 551 35,000  Level Albuquerque Center
Sat 01:56:31 PM 36.8547 -102.4308 141° Southeast 481 554 35,000  Level Albuquerque Center
Sat 01:57:33 PM 36.7600 -102.3117 135° Southeast 484 557 35,000  Level Albuquerque Center
Sat 01:58:34 PM 36.6647 -102.1658 129° Southeast 486 559 35,000  Level Albuquerque Center
Sat 01:59:36 PM 36.5694 -102.0272 131° Southeast 485 558 35,000  Level Albuquerque Center
Sat 02:00:38 PM 36.4831 -101.8992 130° Southeast 484 557 35,000  Level Albuquerque Center
Sat 02:01:40 PM 36.3956 -101.7703 130° Southeast 485 558 35,000  Level Albuquerque Center
Sat 02:02:41 PM 36.3078 -101.6436 131° Southeast 486 559 35,000  Level Albuquerque Center
Sat 02:03:43 PM 36.2200 -101.5161 130° Southeast 485 558 35,000  Level Albuquerque Center
Sat 02:04:45 PM 36.1311 -101.3878 131° Southeast 488 562 35,000  Level Albuquerque Center
Sat 02:05:47 PM 36.0258 -101.2333 130° Southeast 487 560 35,000  Level Albuquerque Center
Sat 02:06:49 PM 35.9375 -101.1053 130° Southeast 487 560 35,000  Level Albuquerque Center
Sat 02:07:50 PM 35.8489 -100.9769 130° Southeast 489 563 35,000  Level Albuquerque Center
Sat 02:08:52 PM 35.7594 -100.8514 131° Southeast 486 559 35,000  Level Albuquerque Center
Sat 02:09:54 PM 35.6706 -100.7231 130° Southeast 488 562 35,000  Level Albuquerque Center
Sat 02:10:56 PM 35.5803 -100.5975 131° Southeast 490 564 35,000  Level Albuquerque Center
Sat 02:11:57 PM 35.4911 -100.4700 131° Southeast 491 565 35,000  Level Albuquerque Center
Sat 02:12:59 PM 35.4014 -100.3444 131° Southeast 490 564 35,000  Level Albuquerque Center
Sat 02:14:01 PM 35.2939 -100.1933 131° Southeast 489 563 35,000  Level Albuquerque Center
Sat 02:15:02 PM 35.2031 -100.0678 132° Southeast 490 564 35,000  Level Albuquerque Center
Sat 02:16:04 PM 35.1131 -99.9425 131° Southeast 491 565 35,000  Level Albuquerque Center
Sat 02:17:06 PM 35.0228 -99.8169 131° Southeast 491 565 35,000  Level Albuquerque Center
Sat 02:18:07 PM 34.9311 -99.6914 132° Southeast 494 568 35,000  Level Albuquerque Center
Sat 02:19:03 PM 34.8411 -99.5639 131° Southeast 490 564 35,000  Level Fort Worth Center
Sat 02:20:03 PM 34.7678 -99.4661 132° Southeast 495 570 35,000  Level Fort Worth Center
Sat 02:21:03 PM 34.6656 -99.3322 133° Southeast 495 570 35,000  Level Fort Worth Center
Sat 02:22:03 PM 34.5714 -99.2042 132° Southeast 502 578 35,000  Level Fort Worth Center
Sat 02:23:03 PM 34.4794 -99.0786 132° Southeast 502 578 35,000 -50 Level Fort Worth Center
Sat 02:24:03 PM 34.3850 -98.9511 132° Southeast 502 578 34,900 -1,350 Descending Fort Worth Center
Sat 02:25:03 PM 34.2883 -98.8236 133° Southeast 507 583 32,300 -2,650 Descending Fort Worth Center
Sat 02:26:03 PM 34.1939 -98.6967 132° Southeast 502 578 29,600 -2,750 Descending Fort Worth Center
Sat 02:27:03 PM 34.0969 -98.5672 132° Southeast 502 578 26,800 -2,800 Descending Fort Worth Center
Sat 02:28:03 PM 33.9958 -98.4306 132° Southeast 499 574 24,000 -1,400 Descending Fort Worth Center
Sat 02:29:03 PM 33.9050 -98.3094 132° Southeast 489 563 24,000  Level Fort Worth Center
Sat 02:30:03 PM 33.8161 -98.1908 132° Southeast 489 563 24,000 -400 Level Fort Worth Center
Sat 02:31:03 PM 33.7311 -98.0828 133° Southeast 484 557 23,200 -1,850 Descending Fort Worth Center
Sat 02:32:03 PM 33.6317 -97.9547 133° Southeast 476 548 20,300 -2,600 Descending Fort Worth Center
Sat 02:33:03 PM 33.5422 -97.8447 134° Southeast 471 542 18,000 -2,250 Descending Fort Worth Center
Sat 02:34:03 PM 33.4675 -97.7497 133° Southeast 452 520 15,800 -2,300 Descending Fort Worth Center
Sat 02:35:03 PM 33.3739 -97.6325 134° Southeast 441 507 13,400 -2,350 Descending Fort Worth Center
Sat 02:36:03 PM 33.2925 -97.5378 136° Southeast 425 489 11,100 -1,200 Descending Fort Worth Center
Sat 02:37:03 PM 33.2194 -97.4506 135° Southeast 414 476 11,000 -50 Descending Fort Worth Center
Sat 02:38:03 PM 33.1297 -97.3464 136° Southeast 414 476 11,000  Level Fort Worth Center
Sat 02:39:03 PM 33.0525 -97.2547 135° Southeast 398 458 11,000  Level Fort Worth Center
Sat 02:40:03 PM 32.9833 -97.1781 137° Southeast 361 415 11,000 -350 Level Fort Worth Center
Sat 02:41:03 PM 32.9061 -97.1733 177° South 276 318 10,300 -900 Descending Fort Worth Center
Sat 02:42:03 PM 32.8311 -97.1711 179° South 281 323 9,200 -1,450 Descending Fort Worth Center
Sat 02:43:03 PM 32.7683 -97.1689 178° South 269 310 7,400 -1,900 Descending Fort Worth Center
Sat 02:44:03 PM 32.6933 -97.1689 180° South 253 291 5,400 -1,200 Descending Fort Worth Center
Sat 02:45:03 PM 32.6597 -97.1344 139° Southeast 197 227 5,000 -350 Descending Fort Worth Center
Sat 02:46:03 PM 32.6700 -97.0681 80° East 162 186 4,700 -550 Descending Fort Worth Center
Sat 02:47:03 PM 32.7097 -97.0603 North 118 136 3,900 -900 Descending Fort Worth Center
Sat 02:48:03 PM 32.7597 -97.0578 North 138 159 2,900 -938 Descending Fort Worth Center
Sat 02:49:11 PM 32.8000 -97.0500 North 140 161 1,900 -882 Descending Dallas / Fort Worth TRACON

Login

Don't have an account? Register now (free) for customized features, flight alerts, and more!